CheckWX is a tool to help pilots better visualize weather data.  It is not intended as a substitute for an official pre-flight weather briefing.

16:47:27 UTC

KEKM METAR
Elkhart Municipal Airport
Elkhart, Indiana, USA
Current

2 hours ago

KEKM 051452Z 06004KT 10SM SKC 07/01 A3018 RMK AO2
Observed
Apr-5 @ 14:52 UTC
Wind
  • 060° at 4 KTS
Visibility
Flight Rules
VFR
Cloud Levels
  • Clear skies
Temperature
C / 45°F
Dewpoint
C / 34°F
Humidity
66%
Altimeter
30.18" Hg
Pressure
1022.02 hPa
Previous

3 hours ago

KEKM 051352Z 03005KT 10SM SCT013 05/02 A3017 RMK AO2
Observed
Apr-5 @ 13:52 UTC
Wind
  • 030° at 5 KTS
Visibility
Flight Rules
VFR
Cloud Levels
  • Scattered at 1,300' AGL
Temperature
C / 41°F
Dewpoint
C / 36°F
Humidity
81%
Altimeter
30.17" Hg
Pressure
1021.72 hPa
Previous

4 hours ago

KEKM 051252Z 35004KT 10SM OVC013 04/02 A3018 RMK AO2
Observed
Apr-5 @ 12:52 UTC
Wind
  • 350° at 4 KTS
Visibility
Flight Rules
MVFR
Cloud Levels
  • Overcast at 1,300' AGL
Temperature
C / 39°F
Dewpoint
C / 36°F
Humidity
87%
Altimeter
30.18" Hg
Pressure
1022.02 hPa